sensor_id;sensor_type;location;lat;lon;timestamp;pressure;altitude;pressure_sealevel;temperature;humidity
29941;BME280;16801;53.562;10.038;2023-05-22T00:00:20;101681.78;;;20.46;67.93
29941;BME280;16801;53.562;10.038;2023-05-22T00:03:42;101682.13;;;20.43;67.80
29941;BME280;16801;53.562;10.038;2023-05-22T00:07:03;101684.00;;;20.50;67.84
29941;BME280;16801;53.562;10.038;2023-05-22T00:10:25;101669.84;;;20.39;67.74
29941;BME280;16801;53.562;10.038;2023-05-22T00:13:47;101678.53;;;20.42;67.63
29941;BME280;16801;53.562;10.038;2023-05-22T00:17:08;101676.47;;;20.44;67.43
29941;BME280;16801;53.562;10.038;2023-05-22T00:20:33;101679.94;;;20.38;67.30
29941;BME280;16801;53.562;10.038;2023-05-22T00:23:57;101672.78;;;20.37;67.41
29941;BME280;16801;53.562;10.038;2023-05-22T00:27:17;101669.03;;;20.30;67.16
29941;BME280;16801;53.562;10.038;2023-05-22T00:30:40;101670.25;;;20.28;67.08
29941;BME280;16801;53.562;10.038;2023-05-22T00:34:01;101670.63;;;20.25;67.01
29941;BME280;16801;53.562;10.038;2023-05-22T00:37:22;101675.59;;;20.21;67.24
29941;BME280;16801;53.562;10.038;2023-05-22T00:40:43;101670.13;;;20.13;67.46
29941;BME280;16801;53.562;10.038;2023-05-22T00:44:04;101667.38;;;20.13;67.25
29941;BME280;16801;53.562;10.038;2023-05-22T00:47:28;101671.47;;;20.17;67.31
29941;BME280;16801;53.562;10.038;2023-05-22T00:50:49;101667.75;;;20.10;67.34
29941;BME280;16801;53.562;10.038;2023-05-22T00:54:11;101666.41;;;20.06;67.43
29941;BME280;16801;53.562;10.038;2023-05-22T00:57:32;101668.63;;;20.03;67.45
29941;BME280;16801;53.562;10.038;2023-05-22T01:00:53;101665.41;;;19.99;67.51
29941;BME280;16801;53.562;10.038;2023-05-22T01:04:16;101663.00;;;20.04;67.45
29941;BME280;16801;53.562;10.038;2023-05-22T01:07:38;101667.28;;;19.99;67.36
29941;BME280;16801;53.562;10.038;2023-05-22T01:11:08;101663.22;;;19.86;67.98
29941;BME280;16801;53.562;10.038;2023-05-22T01:14:35;101666.63;;;19.88;67.84
29941;BME280;16801;53.562;10.038;2023-05-22T01:18:06;101656.22;;;19.84;67.93
29941;BME280;16801;53.562;10.038;2023-05-22T01:21:38;101657.09;;;19.76;68.05
29941;BME280;16801;53.562;10.038;2023-05-22T01:25:35;101651.16;;;19.73;67.80
29941;BME280;16801;53.562;10.038;2023-05-22T01:29:10;101650.28;;;19.72;67.83
29941;BME280;16801;53.562;10.038;2023-05-22T01:32:35;101645.19;;;19.61;68.09
29941;BME280;16801;53.562;10.038;2023-05-22T01:35:58;101641.25;;;19.64;68.42
29941;BME280;16801;53.562;10.038;2023-05-22T01:39:21;101648.44;;;19.57;68.38
29941;BME280;16801;53.562;10.038;2023-05-22T01:42:45;101647.75;;;19.55;68.38
29941;BME280;16801;53.562;10.038;2023-05-22T01:46:06;101644.34;;;19.61;68.37
29941;BME280;16801;53.562;10.038;2023-05-22T01:49:28;101652.78;;;19.43;68.49
29941;BME280;16801;53.562;10.038;2023-05-22T01:52:55;101652.94;;;19.50;68.65
29941;BME280;16801;53.562;10.038;2023-05-22T01:56:22;101654.13;;;19.47;68.58
29941;BME280;16801;53.562;10.038;2023-05-22T01:59:53;101650.38;;;19.40;68.76
29941;BME280;16801;53.562;10.038;2023-05-22T02:03:19;101646.94;;;19.38;68.85
29941;BME280;16801;53.562;10.038;2023-05-22T02:06:45;101653.81;;;19.34;68.83
29941;BME280;16801;53.562;10.038;2023-05-22T02:10:08;101652.28;;;19.40;68.74
29941;BME280;16801;53.562;10.038;2023-05-22T02:13:31;101647.13;;;19.37;68.68
29941;BME280;16801;53.562;10.038;2023-05-22T02:16:52;101644.59;;;19.35;68.76
29941;BME280;16801;53.562;10.038;2023-05-22T02:20:15;101636.88;;;19.31;68.79
29941;BME280;16801;53.562;10.038;2023-05-22T02:23:38;101621.00;;;19.34;68.66
29941;BME280;16801;53.562;10.038;2023-05-22T02:26:59;101626.94;;;19.30;68.37
29941;BME280;16801;53.562;10.038;2023-05-22T02:30:20;101627.50;;;19.25;68.60
29941;BME280;16801;53.562;10.038;2023-05-22T02:33:43;101620.66;;;19.21;68.69
29941;BME280;16801;53.562;10.038;2023-05-22T02:37:04;101620.13;;;19.17;68.73
29941;BME280;16801;53.562;10.038;2023-05-22T02:40:27;101620.81;;;19.20;68.59
29941;BME280;16801;53.562;10.038;2023-05-22T02:43:48;101619.28;;;19.25;68.69
29941;BME280;16801;53.562;10.038;2023-05-22T02:47:08;101612.78;;;19.26;68.54
29941;BME280;16801;53.562;10.038;2023-05-22T02:50:29;101618.94;;;19.20;68.50
29941;BME280;16801;53.562;10.038;2023-05-22T02:53:51;101610.25;;;19.08;68.26
29941;BME280;16801;53.562;10.038;2023-05-22T02:57:14;101609.19;;;19.17;68.43
29941;BME280;16801;53.562;10.038;2023-05-22T03:00:35;101611.06;;;19.17;68.37
29941;BME280;16801;53.562;10.038;2023-05-22T03:03:56;101608.88;;;19.12;67.92
29941;BME280;16801;53.562;10.038;2023-05-22T03:07:17;101598.28;;;19.09;68.27
29941;BME280;16801;53.562;10.038;2023-05-22T03:10:38;101608.22;;;19.10;67.98
29941;BME280;16801;53.562;10.038;2023-05-22T03:14:01;101594.53;;;19.19;67.65
29941;BME280;16801;53.562;10.038;2023-05-22T03:17:22;101596.38;;;19.18;67.26
29941;BME280;16801;53.562;10.038;2023-05-22T03:20:43;101596.75;;;19.23;66.96
29941;BME280;16801;53.562;10.038;2023-05-22T03:24:05;101596.22;;;19.20;66.90
29941;BME280;16801;53.562;10.038;2023-05-22T03:27:26;101599.47;;;19.23;66.61
29941;BME280;16801;53.562;10.038;2023-05-22T03:30:49;101599.78;;;19.28;66.31
29941;BME280;16801;53.562;10.038;2023-05-22T03:34:15;101590.56;;;19.29;66.10
29941;BME280;16801;53.562;10.038;2023-05-22T03:37:39;101594.53;;;19.19;66.10
29941;BME280;16801;53.562;10.038;2023-05-22T03:41:00;101590.22;;;19.24;65.98
29941;BME280;16801;53.562;10.038;2023-05-22T03:44:20;101589.22;;;19.25;65.77
29941;BME280;16801;53.562;10.038;2023-05-22T03:47:43;101587.97;;;19.28;65.62
29941;BME280;16801;53.562;10.038;2023-05-22T03:51:04;101585.47;;;19.18;65.80
29941;BME280;16801;53.562;10.038;2023-05-22T03:54:26;101584.59;;;19.17;65.67
29941;BME280;16801;53.562;10.038;2023-05-22T03:57:47;101585.63;;;19.25;65.69
29941;BME280;16801;53.562;10.038;2023-05-22T04:01:08;101593.44;;;19.28;65.35
29941;BME280;16801;53.562;10.038;2023-05-22T04:04:31;101591.91;;;19.33;65.20
29941;BME280;16801;53.562;10.038;2023-05-22T04:07:57;101582.00;;;19.40;64.78
29941;BME280;16801;53.562;10.038;2023-05-22T04:11:17;101590.34;;;19.47;64.75
29941;BME280;16801;53.562;10.038;2023-05-22T04:14:39;101598.22;;;19.50;64.31
29941;BME280;16801;53.562;10.038;2023-05-22T04:18:00;101588.66;;;19.46;64.29
29941;BME280;16801;53.562;10.038;2023-05-22T04:21:22;101585.94;;;19.46;64.16
29941;BME280;16801;53.562;10.038;2023-05-22T04:24:44;101588.28;;;19.49;64.12
29941;BME280;16801;53.562;10.038;2023-05-22T04:28:07;101579.03;;;19.58;63.93
29941;BME280;16801;53.562;10.038;2023-05-22T04:31:28;101578.81;;;19.67;63.76
29941;BME280;16801;53.562;10.038;2023-05-22T04:34:49;101572.19;;;19.62;63.14
29941;BME280;16801;53.562;10.038;2023-05-22T04:38:11;101578.47;;;19.70;62.86
29941;BME280;16801;53.562;10.038;2023-05-22T04:41:31;101575.91;;;19.69;62.60
29941;BME280;16801;53.562;10.038;2023-05-22T04:44:52;101582.38;;;19.76;62.20
29941;BME280;16801;53.562;10.038;2023-05-22T04:48:16;101578.03;;;19.89;61.89
29941;BME280;16801;53.562;10.038;2023-05-22T04:51:38;101580.25;;;19.86;61.60
29941;BME280;16801;53.562;10.038;2023-05-22T04:55:00;101584.19;;;19.91;61.28
29941;BME280;16801;53.562;10.038;2023-05-22T04:58:21;101583.47;;;19.98;61.04
29941;BME280;16801;53.562;10.038;2023-05-22T05:01:43;101576.63;;;19.93;61.22
29941;BME280;16801;53.562;10.038;2023-05-22T05:05:09;101576.34;;;20.11;60.68
29941;BME280;16801;53.562;10.038;2023-05-22T05:08:31;101569.31;;;20.17;59.97
29941;BME280;16801;53.562;10.038;2023-05-22T05:11:53;101569.97;;;20.27;60.13
29941;BME280;16801;53.562;10.038;2023-05-22T05:15:15;101566.13;;;20.36;59.21
29941;BME280;16801;53.562;10.038;2023-05-22T05:18:35;101576.16;;;20.43;59.07
29941;BME280;16801;53.562;10.038;2023-05-22T05:21:56;101567.31;;;20.56;58.61
29941;BME280;16801;53.562;10.038;2023-05-22T05:25:18;101567.69;;;20.53;58.74
29941;BME280;16801;53.562;10.038;2023-05-22T05:28:41;101572.06;;;20.62;58.47
29941;BME280;16801;53.562;10.038;2023-05-22T05:32:02;101571.59;;;20.58;57.89
29941;BME280;16801;53.562;10.038;2023-05-22T05:35:37;101578.88;;;20.66;57.72
29941;BME280;16801;53.562;10.038;2023-05-22T05:39:03;101575.31;;;20.80;57.54
29941;BME280;16801;53.562;10.038;2023-05-22T05:42:27;101568.81;;;20.81;57.20
29941;BME280;16801;53.562;10.038;2023-05-22T05:45:52;101572.59;;;20.95;57.07
29941;BME280;16801;53.562;10.038;2023-05-22T05:49:14;101561.03;;;21.07;56.70
29941;BME280;16801;53.562;10.038;2023-05-22T05:52:36;101563.41;;;21.10;56.42
29941;BME280;16801;53.562;10.038;2023-05-22T05:56:03;101555.84;;;21.27;56.07
29941;BME280;16801;53.562;10.038;2023-05-22T05:59:26;101556.63;;;21.35;56.05
29941;BME280;16801;53.562;10.038;2023-05-22T06:03:08;101550.28;;;21.20;55.97
29941;BME280;16801;53.562;10.038;2023-05-22T06:06:48;101559.81;;;21.39;55.55
29941;BME280;16801;53.562;10.038;2023-05-22T06:10:21;101548.72;;;21.62;55.20
29941;BME280;16801;53.562;10.038;2023-05-22T06:13:48;101545.72;;;21.57;55.00
29941;BME280;16801;53.562;10.038;2023-05-22T06:17:09;101547.94;;;21.68;54.58
29941;BME280;16801;53.562;10.038;2023-05-22T06:20:34;101550.69;;;21.68;54.78
29941;BME280;16801;53.562;10.038;2023-05-22T06:23:55;101540.00;;;21.73;54.87
29941;BME280;16801;53.562;10.038;2023-05-22T06:27:18;101548.69;;;21.91;54.97
29941;BME280;16801;53.562;10.038;2023-05-22T06:30:39;101543.59;;;21.88;54.49
29941;BME280;16801;53.562;10.038;2023-05-22T06:34:03;101551.44;;;21.91;54.39
29941;BME280;16801;53.562;10.038;2023-05-22T06:37:25;101556.28;;;21.89;54.25
29941;BME280;16801;53.562;10.038;2023-05-22T06:40:47;101559.75;;;21.97;54.01
29941;BME280;16801;53.562;10.038;2023-05-22T06:44:11;101565.75;;;22.22;54.19
29941;BME280;16801;53.562;10.038;2023-05-22T06:47:34;101564.13;;;22.27;54.08
29941;BME280;16801;53.562;10.038;2023-05-22T06:50:56;101566.25;;;22.53;54.13
29941;BME280;16801;53.562;10.038;2023-05-22T06:54:19;101559.88;;;22.46;53.21
29941;BME280;16801;53.562;10.038;2023-05-22T06:57:43;101568.25;;;22.59;53.51
29941;BME280;16801;53.562;10.038;2023-05-22T07:01:05;101565.69;;;22.79;53.13
29941;BME280;16801;53.562;10.038;2023-05-22T07:04:32;101574.50;;;22.53;52.93
29941;BME280;16801;53.562;10.038;2023-05-22T07:08:06;101577.34;;;22.60;52.97
29941;BME280;16801;53.562;10.038;2023-05-22T07:11:28;101577.09;;;22.76;52.26
29941;BME280;16801;53.562;10.038;2023-05-22T07:14:49;101574.84;;;23.14;52.06
29941;BME280;16801;53.562;10.038;2023-05-22T07:18:10;101570.38;;;22.85;51.41
29941;BME280;16801;53.562;10.038;2023-05-22T07:21:34;101570.72;;;23.03;50.81
29941;BME280;16801;53.562;10.038;2023-05-22T07:24:57;101564.91;;;23.47;51.23
29941;BME280;16801;53.562;10.038;2023-05-22T07:28:24;101563.13;;;23.67;50.81
29941;BME280;16801;53.562;10.038;2023-05-22T07:31:55;101563.41;;;23.85;49.91
29941;BME280;16801;53.562;10.038;2023-05-22T07:35:18;101565.94;;;23.87;49.39
29941;BME280;16801;53.562;10.038;2023-05-22T07:38:39;101553.41;;;23.71;50.00
29941;BME280;16801;53.562;10.038;2023-05-22T07:42:00;101552.34;;;23.65;49.10
29941;BME280;16801;53.562;10.038;2023-05-22T07:45:27;101548.75;;;24.25;49.21
29941;BME280;16801;53.562;10.038;2023-05-22T07:48:50;101546.63;;;24.34;48.54
29941;BME280;16801;53.562;10.038;2023-05-22T07:52:11;101546.59;;;24.14;48.21
29941;BME280;16801;53.562;10.038;2023-05-22T07:55:32;101545.75;;;24.27;47.70
29941;BME280;16801;53.562;10.038;2023-05-22T07:58:55;101543.88;;;24.27;47.81
29941;BME280;16801;53.562;10.038;2023-05-22T08:02:18;101535.19;;;24.24;47.62
29941;BME280;16801;53.562;10.038;2023-05-22T08:05:39;101529.25;;;24.40;47.57
29941;BME280;16801;53.562;10.038;2023-05-22T08:09:00;101533.13;;;24.78;48.25
29941;BME280;16801;53.562;10.038;2023-05-22T08:12:23;101530.56;;;24.83;47.46
29941;BME280;16801;53.562;10.038;2023-05-22T08:15:44;101534.13;;;24.38;46.57
29941;BME280;16801;53.562;10.038;2023-05-22T08:19:06;101540.97;;;24.75;47.25
29941;BME280;16801;53.562;10.038;2023-05-22T08:22:28;101527.34;;;25.12;47.01
29941;BME280;16801;53.562;10.038;2023-05-22T08:25:49;101531.19;;;24.92;47.32
29941;BME280;16801;53.562;10.038;2023-05-22T08:29:10;101527.72;;;25.29;46.79
29941;BME280;16801;53.562;10.038;2023-05-22T08:32:31;101534.56;;;25.07;47.36
29941;BME280;16801;53.562;10.038;2023-05-22T08:35:53;101523.94;;;25.17;46.24
29941;BME280;16801;53.562;10.038;2023-05-22T08:39:14;101521.53;;;25.40;45.44
29941;BME280;16801;53.562;10.038;2023-05-22T08:42:37;101524.31;;;25.27;45.68
29941;BME280;16801;53.562;10.038;2023-05-22T08:45:59;101516.03;;;25.33;45.09
29941;BME280;16801;53.562;10.038;2023-05-22T08:49:23;101510.94;;;25.30;45.54
29941;BME280;16801;53.562;10.038;2023-05-22T08:52:50;101510.78;;;24.99;45.87
29941;BME280;16801;53.562;10.038;2023-05-22T08:56:11;101511.75;;;25.51;45.39
29941;BME280;16801;53.562;10.038;2023-05-22T08:59:34;101502.59;;;25.57;44.73
29941;BME280;16801;53.562;10.038;2023-05-22T09:02:56;101511.38;;;25.85;45.02
29941;BME280;16801;53.562;10.038;2023-05-22T09:06:17;101498.94;;;25.69;44.59
29941;BME280;16801;53.562;10.038;2023-05-22T09:09:39;101503.84;;;25.67;44.42
29941;BME280;16801;53.562;10.038;2023-05-22T09:13:02;101494.00;;;25.78;43.49
29941;BME280;16801;53.562;10.038;2023-05-22T09:16:24;101494.28;;;25.63;43.90
29941;BME280;16801;53.562;10.038;2023-05-22T09:19:46;101487.22;;;25.74;43.43
29941;BME280;16801;53.562;10.038;2023-05-22T09:23:10;101501.22;;;25.79;43.36
29941;BME280;16801;53.562;10.038;2023-05-22T09:26:34;101487.97;;;25.50;43.26
29941;BME280;16801;53.562;10.038;2023-05-22T09:29:56;101493.13;;;25.84;43.12
29941;BME280;16801;53.562;10.038;2023-05-22T09:33:17;101479.59;;;25.69;42.95
29941;BME280;16801;53.562;10.038;2023-05-22T09:36:38;101480.31;;;26.27;42.18
29941;BME280;16801;53.562;10.038;2023-05-22T09:40:03;101472.59;;;26.60;41.57
29941;BME280;16801;53.562;10.038;2023-05-22T09:43:26;101470.06;;;26.34;41.35
29941;BME280;16801;53.562;10.038;2023-05-22T09:46:46;101467.53;;;27.00;41.57
29941;BME280;16801;53.562;10.038;2023-05-22T09:50:07;101475.22;;;27.41;41.32
29941;BME280;16801;53.562;10.038;2023-05-22T09:53:31;101462.09;;;27.12;40.19
29941;BME280;16801;53.562;10.038;2023-05-22T09:56:54;101467.53;;;27.00;40.38
29941;BME280;16801;53.562;10.038;2023-05-22T10:00:19;101455.91;;;26.91;40.76
29941;BME280;16801;53.562;10.038;2023-05-22T10:03:39;101459.06;;;26.77;40.65
29941;BME280;16801;53.562;10.038;2023-05-22T10:07:03;101461.56;;;27.21;41.02
29941;BME280;16801;53.562;10.038;2023-05-22T10:10:24;101462.47;;;27.33;40.17
29941;BME280;16801;53.562;10.038;2023-05-22T10:13:45;101446.34;;;27.30;40.50
29941;BME280;16801;53.562;10.038;2023-05-22T10:17:09;101440.06;;;27.71;40.42
29941;BME280;16801;53.562;10.038;2023-05-22T10:20:30;101443.59;;;27.78;40.32
29941;BME280;16801;53.562;10.038;2023-05-22T10:23:52;101448.94;;;27.43;39.67
29941;BME280;16801;53.562;10.038;2023-05-22T10:27:14;101427.19;;;28.06;39.87
29941;BME280;16801;53.562;10.038;2023-05-22T10:30:40;101427.19;;;28.06;38.85
29941;BME280;16801;53.562;10.038;2023-05-22T10:34:33;101417.19;;;28.17;38.56
29941;BME280;16801;53.562;10.038;2023-05-22T10:38:10;101418.81;;;28.94;37.95
29941;BME280;16801;53.562;10.038;2023-05-22T10:41:34;101416.31;;;28.81;37.28
29941;BME280;16801;53.562;10.038;2023-05-22T10:44:55;101414.50;;;28.63;37.66
29941;BME280;16801;53.562;10.038;2023-05-22T10:48:20;101408.44;;;28.89;37.49
29941;BME280;16801;53.562;10.038;2023-05-22T10:51:42;101409.22;;;29.64;36.52
29941;BME280;16801;53.562;10.038;2023-05-22T10:55:08;101407.97;;;29.44;35.89
29941;BME280;16801;53.562;10.038;2023-05-22T10:58:31;101405.91;;;28.65;36.93
29941;BME280;16801;53.562;10.038;2023-05-22T11:01:59;101398.78;;;28.69;37.39
29941;BME280;16801;53.562;10.038;2023-05-22T11:05:34;101390.03;;;29.23;37.04
29941;BME280;16801;53.562;10.038;2023-05-22T11:08:58;101385.91;;;29.37;36.57
29941;BME280;16801;53.562;10.038;2023-05-22T11:12:23;101395.34;;;29.13;36.65
29941;BME280;16801;53.562;10.038;2023-05-22T11:15:47;101378.25;;;29.16;36.38
29941;BME280;16801;53.562;10.038;2023-05-22T11:19:08;101385.34;;;29.12;36.27
29941;BME280;16801;53.562;10.038;2023-05-22T11:22:32;101373.56;;;29.89;36.31
29941;BME280;16801;53.562;10.038;2023-05-22T11:25:54;101370.88;;;30.11;35.69
29941;BME280;16801;53.562;10.038;2023-05-22T11:29:16;101366.28;;;29.44;36.07
29941;BME280;16801;53.562;10.038;2023-05-22T11:32:39;101373.28;;;30.36;35.40
29941;BME280;16801;53.562;10.038;2023-05-22T11:36:03;101362.06;;;30.69;35.00
29941;BME280;16801;53.562;10.038;2023-05-22T11:39:24;101354.78;;;30.85;35.21
29941;BME280;16801;53.562;10.038;2023-05-22T11:42:47;101361.84;;;30.70;34.58
29941;BME280;16801;53.562;10.038;2023-05-22T11:46:09;101354.72;;;29.91;35.10
29941;BME280;16801;53.562;10.038;2023-05-22T11:49:30;101351.00;;;29.30;36.12
29941;BME280;16801;53.562;10.038;2023-05-22T11:52:53;101349.19;;;29.35;35.96
29941;BME280;16801;53.562;10.038;2023-05-22T11:56:18;101349.72;;;29.49;36.19
29941;BME280;16801;53.562;10.038;2023-05-22T11:59:43;101332.44;;;30.25;36.22
29941;BME280;16801;53.562;10.038;2023-05-22T12:03:05;101338.97;;;29.69;35.28
29941;BME280;16801;53.562;10.038;2023-05-22T12:06:25;101337.41;;;29.89;35.71
29941;BME280;16801;53.562;10.038;2023-05-22T12:09:46;101337.19;;;30.62;35.16
29941;BME280;16801;53.562;10.038;2023-05-22T12:13:08;101328.22;;;30.77;34.11
29941;BME280;16801;53.562;10.038;2023-05-22T12:16:34;101329.91;;;30.78;34.71
29941;BME280;16801;53.562;10.038;2023-05-22T12:19:56;101320.78;;;30.83;34.35
29941;BME280;16801;53.562;10.038;2023-05-22T12:23:21;101324.28;;;30.35;33.46
29941;BME280;16801;53.562;10.038;2023-05-22T12:26:48;101325.63;;;30.32;34.70
29941;BME280;16801;53.562;10.038;2023-05-22T12:30:11;101323.00;;;30.26;35.42
29941;BME280;16801;53.562;10.038;2023-05-22T12:33:34;101324.69;;;30.27;34.25
29941;BME280;16801;53.562;10.038;2023-05-22T12:36:55;101321.56;;;30.40;34.16
29941;BME280;16801;53.562;10.038;2023-05-22T12:40:16;101323.16;;;30.36;34.29
29941;BME280;16801;53.562;10.038;2023-05-22T12:43:38;101309.69;;;30.11;33.79
29941;BME280;16801;53.562;10.038;2023-05-22T12:46:59;101309.09;;;30.09;34.30
29941;BME280;16801;53.562;10.038;2023-05-22T12:50:21;101295.25;;;30.69;33.52
29941;BME280;16801;53.562;10.038;2023-05-22T12:53:42;101296.19;;;30.36;33.50
29941;BME280;16801;53.562;10.038;2023-05-22T12:57:03;101288.09;;;32.43;30.89
29941;BME280;16801;53.562;10.038;2023-05-22T13:00:24;101275.66;;;33.43;29.87
29941;BME280;16801;53.562;10.038;2023-05-22T13:03:46;101282.63;;;35.25;28.26
29941;BME280;16801;53.562;10.038;2023-05-22T13:07:08;101278.31;;;35.48;27.01
29941;BME280;16801;53.562;10.038;2023-05-22T13:10:28;101280.09;;;34.65;27.68
29941;BME280;16801;53.562;10.038;2023-05-22T13:13:49;101268.88;;;32.47;30.12
29941;BME280;16801;53.562;10.038;2023-05-22T13:17:10;101264.44;;;33.18;29.32
29941;BME280;16801;53.562;10.038;2023-05-22T13:20:30;101259.97;;;35.60;27.44
29941;BME280;16801;53.562;10.038;2023-05-22T13:23:54;101257.03;;;34.88;26.91
29941;BME280;16801;53.562;10.038;2023-05-22T13:27:15;101243.44;;;34.56;27.54
29941;BME280;16801;53.562;10.038;2023-05-22T13:30:36;101252.13;;;34.54;27.41
29941;BME280;16801;53.562;10.038;2023-05-22T13:33:57;101246.03;;;34.22;27.58
29941;BME280;16801;53.562;10.038;2023-05-22T13:37:18;101243.41;;;35.20;27.33
29941;BME280;16801;53.562;10.038;2023-05-22T13:40:40;101236.81;;;32.54;28.50
29941;BME280;16801;53.562;10.038;2023-05-22T13:44:01;101224.97;;;31.32;29.52
29941;BME280;16801;53.562;10.038;2023-05-22T13:47:22;101221.28;;;31.26;29.98
29941;BME280;16801;53.562;10.038;2023-05-22T13:50:44;101213.94;;;31.15;30.52
29941;BME280;16801;53.562;10.038;2023-05-22T13:54:05;101209.56;;;30.76;30.86
29941;BME280;16801;53.562;10.038;2023-05-22T13:57:27;101201.94;;;31.15;30.52
29941;BME280;16801;53.562;10.038;2023-05-22T14:00:48;101204.34;;;30.58;30.48
29941;BME280;16801;53.562;10.038;2023-05-22T14:04:09;101202.25;;;30.27;30.85
29941;BME280;16801;53.562;10.038;2023-05-22T14:07:30;101203.53;;;30.84;30.80
29941;BME280;16801;53.562;10.038;2023-05-22T14:10:51;101197.38;;;30.82;30.23
29941;BME280;16801;53.562;10.038;2023-05-22T14:14:13;101202.03;;;30.12;30.88
29941;BME280;16801;53.562;10.038;2023-05-22T14:17:35;101206.19;;;29.92;30.89
29941;BME280;16801;53.562;10.038;2023-05-22T14:20:57;101188.44;;;30.15;31.03
29941;BME280;16801;53.562;10.038;2023-05-22T14:24:17;101182.97;;;29.82;30.96
29941;BME280;16801;53.562;10.038;2023-05-22T14:27:38;101170.13;;;29.48;31.50
29941;BME280;16801;53.562;10.038;2023-05-22T14:31:01;101170.88;;;29.10;30.99
29941;BME280;16801;53.562;10.038;2023-05-22T14:34:21;101162.75;;;28.92;31.35
29941;BME280;16801;53.562;10.038;2023-05-22T14:37:42;101161.44;;;28.66;31.16
29941;BME280;16801;53.562;10.038;2023-05-22T14:41:03;101155.66;;;28.56;32.10
29941;BME280;16801;53.562;10.038;2023-05-22T14:44:23;101161.44;;;28.26;32.59
29941;BME280;16801;53.562;10.038;2023-05-22T14:47:46;101161.44;;;28.26;33.13
29941;BME280;16801;53.562;10.038;2023-05-22T14:51:06;101157.13;;;28.07;32.62
29941;BME280;16801;53.562;10.038;2023-05-22T14:54:27;101155.44;;;27.83;33.08
29941;BME280;16801;53.562;10.038;2023-05-22T14:57:50;101161.56;;;27.62;32.94
29941;BME280;16801;53.562;10.038;2023-05-22T15:01:11;101168.09;;;27.56;33.83
29941;BME280;16801;53.562;10.038;2023-05-22T15:04:34;101169.28;;;27.60;34.09
29941;BME280;16801;53.562;10.038;2023-05-22T15:07:54;101176.59;;;27.31;33.71
29941;BME280;16801;53.562;10.038;2023-05-22T15:11:17;101173.47;;;27.28;34.06
29941;BME280;16801;53.562;10.038;2023-05-22T15:14:38;101163.69;;;27.25;34.66
29941;BME280;16801;53.562;10.038;2023-05-22T15:17:59;101160.81;;;27.20;34.81
29941;BME280;16801;53.562;10.038;2023-05-22T15:21:24;101166.47;;;27.14;34.96
29941;BME280;16801;53.562;10.038;2023-05-22T15:24:46;101169.06;;;27.09;34.08
29941;BME280;16801;53.562;10.038;2023-05-22T15:28:07;101170.78;;;27.10;34.80
29941;BME280;16801;53.562;10.038;2023-05-22T15:31:28;101177.19;;;26.80;34.56
29941;BME280;16801;53.562;10.038;2023-05-22T15:34:50;101228.53;;;26.58;35.96
29941;BME280;16801;53.562;10.038;2023-05-22T15:38:12;101208.59;;;25.21;43.99
29941;BME280;16801;53.562;10.038;2023-05-22T15:41:34;101217.84;;;24.07;48.97
29941;BME280;16801;53.562;10.038;2023-05-22T15:44:56;101234.41;;;22.68;57.05
29941;BME280;16801;53.562;10.038;2023-05-22T15:48:17;101238.13;;;22.13;61.29
29941;BME280;16801;53.562;10.038;2023-05-22T15:51:38;101258.19;;;21.80;65.31
29941;BME280;16801;53.562;10.038;2023-05-22T15:55:00;101261.34;;;22.04;67.32
29941;BME280;16801;53.562;10.038;2023-05-22T15:58:21;101283.56;;;20.83;69.17
29941;BME280;16801;53.562;10.038;2023-05-22T16:01:42;101285.88;;;20.50;71.83
29941;BME280;16801;53.562;10.038;2023-05-22T16:05:03;101301.22;;;20.80;72.65
29941;BME280;16801;53.562;10.038;2023-05-22T16:08:24;101302.13;;;21.02;72.19
29941;BME280;16801;53.562;10.038;2023-05-22T16:11:47;101288.03;;;20.69;73.43
29941;BME280;16801;53.562;10.038;2023-05-22T16:15:09;101286.97;;;20.70;74.29
29941;BME280;16801;53.562;10.038;2023-05-22T16:18:30;101287.56;;;20.65;74.66
29941;BME280;16801;53.562;10.038;2023-05-22T16:21:51;101300.09;;;20.89;75.73
29941;BME280;16801;53.562;10.038;2023-05-22T16:25:13;101290.13;;;21.03;75.76
29941;BME280;16801;53.562;10.038;2023-05-22T16:28:36;101287.56;;;21.58;75.21
29941;BME280;16801;53.562;10.038;2023-05-22T16:31:57;101289.09;;;22.16;74.67
29941;BME280;16801;53.562;10.038;2023-05-22T16:35:18;101283.47;;;22.65;74.22
29941;BME280;16801;53.562;10.038;2023-05-22T16:38:40;101272.03;;;22.61;73.21
29941;BME280;16801;53.562;10.038;2023-05-22T16:42:01;101263.47;;;22.84;72.65
29941;BME280;16801;53.562;10.038;2023-05-22T16:45:23;101268.66;;;22.66;74.22
29941;BME280;16801;53.562;10.038;2023-05-22T16:48:45;101273.28;;;22.24;74.38
29941;BME280;16801;53.562;10.038;2023-05-22T16:52:06;101273.09;;;21.71;76.02
29941;BME280;16801;53.562;10.038;2023-05-22T16:55:27;101260.88;;;21.73;77.28
29941;BME280;16801;53.562;10.038;2023-05-22T16:58:48;101250.41;;;21.83;77.46
29941;BME280;16801;53.562;10.038;2023-05-22T17:02:10;101239.97;;;22.41;76.92
29941;BME280;16801;53.562;10.038;2023-05-22T17:05:32;101230.78;;;22.61;76.00
29941;BME280;16801;53.562;10.038;2023-05-22T17:08:52;101222.38;;;22.69;75.51
29941;BME280;16801;53.562;10.038;2023-05-22T17:12:13;101220.25;;;22.65;75.85
29941;BME280;16801;53.562;10.038;2023-05-22T17:15:34;101215.09;;;22.55;76.47
29941;BME280;16801;53.562;10.038;2023-05-22T17:18:56;101221.41;;;22.49;77.26
29941;BME280;16801;53.562;10.038;2023-05-22T17:22:17;101229.63;;;22.43;77.25
29941;BME280;16801;53.562;10.038;2023-05-22T17:25:38;101242.72;;;22.41;77.27